createdAt,value
2022-10-21T00:01:19.843Z,5.60
2022-10-21T00:03:47.917Z,5.57
2022-10-21T00:06:16.375Z,5.45
2022-10-21T00:08:44.456Z,5.43
2022-10-21T00:11:15.065Z,6.13
2022-10-21T00:13:43.252Z,6.05
2022-10-21T00:16:15.743Z,5.93
2022-10-21T00:18:48.264Z,5.80
2022-10-21T00:21:18.715Z,6.03
2022-10-21T00:23:47.523Z,6.53
2022-10-21T00:26:16.378Z,6.15
2022-10-21T00:28:45.694Z,6.78
2022-10-21T00:31:17.988Z,6.15
2022-10-21T00:33:46.166Z,6.13
2022-10-21T00:36:18.331Z,5.80
2022-10-21T00:38:49.222Z,6.28
2022-10-21T00:41:20.634Z,5.65
2022-10-21T00:43:58.505Z,5.70
2022-10-21T00:46:35.852Z,6.18
2022-10-21T00:49:08.445Z,6.53
2022-10-21T00:51:37.201Z,6.63
2022-10-21T00:54:06.749Z,6.55
2022-10-21T00:56:36.949Z,6.90
2022-10-21T00:59:07.191Z,6.75
2022-10-21T01:01:36.829Z,6.50
2022-10-21T01:04:06.013Z,6.68
2022-10-21T01:06:38.206Z,6.20
2022-10-21T01:09:07.070Z,5.90
2022-10-21T01:11:42.300Z,6.20
2022-10-21T01:14:31.144Z,6.10
2022-10-21T01:17:20.366Z,5.78
2022-10-21T01:20:19.526Z,6.45
2022-10-21T01:23:14.634Z,6.47
2022-10-21T01:26:10.612Z,6.80
2022-10-21T01:28:49.751Z,5.72
2022-10-21T01:31:22.296Z,6.20
2022-10-21T01:33:55.396Z,6.15
2022-10-21T01:36:31.894Z,6.45
2022-10-21T01:39:14.948Z,6.28
2022-10-21T01:41:48.192Z,7.05
2022-10-21T01:44:24.084Z,6.75
2022-10-21T01:46:58.914Z,7.15
2022-10-21T01:49:32.532Z,6.50
2022-10-21T01:52:01.914Z,6.43
2022-10-21T01:54:33.571Z,6.60
2022-10-21T01:57:05.535Z,7.35
2022-10-21T01:59:34.501Z,7.25
2022-10-21T02:02:06.727Z,7.13
2022-10-21T02:04:36.995Z,6.65
2022-10-21T02:07:05.270Z,6.75
2022-10-21T02:09:33.391Z,6.65
2022-10-21T02:12:04.179Z,6.78
2022-10-21T02:14:35.692Z,6.65
2022-10-21T02:17:06.170Z,7.32
2022-10-21T02:19:34.330Z,7.45
2022-10-21T02:22:05.720Z,7.55
2022-10-21T02:24:39.545Z,7.28
2022-10-21T02:27:07.773Z,7.55
2022-10-21T02:29:39.265Z,7.65
2022-10-21T02:32:25.004Z,7.47
2022-10-21T02:35:10.280Z,7.97
2022-10-21T02:37:47.037Z,7.22
2022-10-21T02:40:18.772Z,7.13
2022-10-21T02:42:52.414Z,7.60
2022-10-21T02:45:23.357Z,7.72
2022-10-21T02:47:53.283Z,7.30
2022-10-21T02:50:21.586Z,7.32
2022-10-21T02:52:52.034Z,7.35
2022-10-21T02:55:20.112Z,7.47
2022-10-21T02:57:48.222Z,7.88
2022-10-21T03:00:16.900Z,6.85
2022-10-21T03:02:44.944Z,7.30
2022-10-21T03:05:17.139Z,7.60
2022-10-21T03:07:45.241Z,7.72
2022-10-21T03:10:13.363Z,8.13
2022-10-21T03:12:41.485Z,7.95
2022-10-21T03:15:10.514Z,7.25
2022-10-21T03:17:38.788Z,7.70
2022-10-21T03:20:10.444Z,7.45
2022-10-21T03:22:40.138Z,8.20
2022-10-21T03:25:09.656Z,7.63
2022-10-21T03:27:38.231Z,8.23
2022-10-21T03:30:07.589Z,7.57
2022-10-21T03:32:36.058Z,7.00
2022-10-21T03:35:04.629Z,7.57
2022-10-21T03:37:32.689Z,8.40
2022-10-21T03:40:02.114Z,7.45
2022-10-21T03:42:32.590Z,7.30
2022-10-21T03:45:00.631Z,7.93
2022-10-21T03:47:28.791Z,7.57
2022-10-21T03:49:57.287Z,8.05
2022-10-21T03:52:25.561Z,7.90
2022-10-21T03:54:54.114Z,7.95
2022-10-21T03:57:25.929Z,7.85
2022-10-21T03:59:54.144Z,7.90
2022-10-21T04:02:22.240Z,8.27
2022-10-21T04:04:50.270Z,7.70
2022-10-21T04:07:18.387Z,8.18
2022-10-21T04:09:46.504Z,7.80
2022-10-21T04:12:18.791Z,7.70
2022-10-21T04:14:48.352Z,8.38
2022-10-21T04:17:16.610Z,8.05
2022-10-21T04:19:45.731Z,7.45
2022-10-21T04:22:13.775Z,8.00
2022-10-21T04:24:41.896Z,7.72
2022-10-21T04:27:09.949Z,8.13
2022-10-21T04:29:38.024Z,8.25
2022-10-21T04:32:07.535Z,7.90
2022-10-21T04:34:36.123Z,7.50
2022-10-21T04:37:05.272Z,8.05
2022-10-21T04:39:33.566Z,8.23
2022-10-21T04:42:01.557Z,8.20
2022-10-21T04:44:29.630Z,7.78
2022-10-21T04:46:57.695Z,8.48
2022-10-21T04:49:27.421Z,7.75
2022-10-21T04:51:55.561Z,8.23
2022-10-21T04:54:24.026Z,7.93
2022-10-21T04:56:54.511Z,7.88
2022-10-21T04:59:22.698Z,8.65
2022-10-21T05:01:50.827Z,7.78
2022-10-21T05:04:19.113Z,7.38
2022-10-21T05:06:51.114Z,8.10
2022-10-21T05:09:19.261Z,7.60
2022-10-21T05:11:47.304Z,7.57
2022-10-21T05:14:18.757Z,8.02
2022-10-21T05:16:49.961Z,7.97
2022-10-21T05:19:18.101Z,7.43
2022-10-21T05:21:47.481Z,7.60
2022-10-21T05:24:17.903Z,7.90
2022-10-21T05:26:46.039Z,7.30
2022-10-21T05:29:14.448Z,7.63
2022-10-21T05:31:42.827Z,7.88
2022-10-21T05:34:11.140Z,8.00
2022-10-21T05:36:39.292Z,8.13
2022-10-21T05:39:08.864Z,7.72
2022-10-21T05:41:38.470Z,7.70
2022-10-21T05:44:06.740Z,8.00
2022-10-21T05:46:35.136Z,7.82
2022-10-21T05:49:03.797Z,8.10
2022-10-21T05:51:31.854Z,8.50
2022-10-21T05:53:59.958Z,9.30
2022-10-21T05:56:28.040Z,8.05
2022-10-21T05:58:57.568Z,7.63
2022-10-21T06:01:28.714Z,7.88
2022-10-21T06:03:56.859Z,8.68
2022-10-21T06:06:25.136Z,7.65
2022-10-21T06:08:53.479Z,7.22
2022-10-21T06:11:21.688Z,7.82
2022-10-21T06:13:52.181Z,7.82
2022-10-21T06:16:21.734Z,7.47
2022-10-21T06:18:50.297Z,7.20
2022-10-21T06:21:18.435Z,8.00
2022-10-21T06:23:46.926Z,8.20
2022-10-21T06:26:17.132Z,7.78
2022-10-21T06:28:45.864Z,8.05
2022-10-21T06:31:18.823Z,7.80
2022-10-21T06:33:48.655Z,7.72
2022-10-21T06:36:17.217Z,8.10
2022-10-21T06:38:45.435Z,7.68
2022-10-21T06:41:15.308Z,7.50
2022-10-21T06:43:44.286Z,7.65
2022-10-21T06:46:15.339Z,8.07
2022-10-21T06:48:48.002Z,7.35
2022-10-21T06:51:18.400Z,8.13
2022-10-21T06:53:47.422Z,7.90
2022-10-21T06:56:17.507Z,7.93
2022-10-21T06:58:49.918Z,8.05
2022-10-21T07:01:33.443Z,8.15
2022-10-21T07:04:06.044Z,8.43
2022-10-21T07:06:34.847Z,8.60
2022-10-21T07:09:03.151Z,8.52
2022-10-21T07:11:31.723Z,8.52
2022-10-21T07:14:01.616Z,8.32
2022-10-21T07:16:31.965Z,8.60
2022-10-21T07:19:00.267Z,8.75
2022-10-21T07:21:31.588Z,7.97
2022-10-21T07:24:01.394Z,7.97
2022-10-21T07:26:32.932Z,8.63
2022-10-21T07:29:03.708Z,8.98
2022-10-21T07:31:36.075Z,8.63
2022-10-21T07:34:06.735Z,8.88
2022-10-21T07:36:38.344Z,9.70
2022-10-21T07:39:11.079Z,9.20
2022-10-21T07:41:41.477Z,9.00
2022-10-21T07:44:10.470Z,10.10
2022-10-21T07:46:40.067Z,9.75
2022-10-21T07:49:08.843Z,9.60
2022-10-21T07:51:39.096Z,8.65
2022-10-21T07:54:10.731Z,8.93
2022-10-21T07:56:42.339Z,9.30
2022-10-21T07:59:13.116Z,9.15
2022-10-21T08:01:44.577Z,8.75
2022-10-21T08:04:14.305Z,8.88
2022-10-21T08:06:44.777Z,9.02
2022-10-21T08:09:13.946Z,9.63
2022-10-21T08:11:42.581Z,9.57
2022-10-21T08:14:11.772Z,9.40
2022-10-21T08:16:40.826Z,9.02
2022-10-21T08:19:11.252Z,9.02
2022-10-21T08:21:39.276Z,9.13
2022-10-21T08:24:09.097Z,9.07
2022-10-21T08:26:37.474Z,9.57
2022-10-21T08:29:05.884Z,9.70
2022-10-21T08:31:33.952Z,9.75
2022-10-21T08:34:02.160Z,9.40
2022-10-21T08:36:30.537Z,9.43
2022-10-21T08:38:59.531Z,9.88
2022-10-21T08:42:00.175Z,9.57
2022-10-21T08:44:35.576Z,9.02
2022-10-21T08:47:14.193Z,10.45
2022-10-21T08:49:51.885Z,9.77
2022-10-21T08:52:23.165Z,9.30
2022-10-21T08:54:56.195Z,9.88
2022-10-21T08:57:25.939Z,9.38
2022-10-21T08:59:54.894Z,9.48
2022-10-21T09:02:36.562Z,9.95
2022-10-21T09:05:24.342Z,10.40
2022-10-21T09:08:04.478Z,10.25
2022-10-21T09:10:44.335Z,10.18
2022-10-21T09:13:21.648Z,10.05
2022-10-21T09:16:02.262Z,10.63
2022-10-21T09:18:45.072Z,10.35
2022-10-21T09:21:22.555Z,9.85
2022-10-21T09:23:57.709Z,9.85
2022-10-21T09:26:38.727Z,10.25
2022-10-21T09:29:25.669Z,10.43
2022-10-21T09:31:59.879Z,11.07
2022-10-21T09:34:41.482Z,11.52
2022-10-21T09:37:17.411Z,10.65
2022-10-21T09:39:49.577Z,10.90
2022-10-21T09:42:35.729Z,11.82
2022-10-21T09:45:17.538Z,11.23
2022-10-21T09:47:47.304Z,10.52
2022-10-21T09:50:18.192Z,11.23
2022-10-21T09:52:54.168Z,11.70
2022-10-21T09:55:22.588Z,11.82
2022-10-21T09:57:56.680Z,11.18
2022-10-21T10:00:43.335Z,11.57
2022-10-21T10:03:11.679Z,12.80
2022-10-21T10:05:44.157Z,12.60
2022-10-21T10:08:28.092Z,11.88
2022-10-21T10:11:18.153Z,11.25
2022-10-21T10:13:48.531Z,10.93
2022-10-21T10:16:22.850Z,10.98
2022-10-21T10:18:52.679Z,10.48
2022-10-21T10:21:22.135Z,11.02
2022-10-21T10:23:52.520Z,11.48
2022-10-21T10:26:29.019Z,10.60
2022-10-21T10:29:00.195Z,9.95
2022-10-21T10:31:34.146Z,9.77
2022-10-21T10:34:05.037Z,9.73
2022-10-21T10:36:37.307Z,9.85
2022-10-21T10:39:08.751Z,9.10
2022-10-21T10:41:39.638Z,9.27
2022-10-21T10:44:19.804Z,8.63
2022-10-21T10:46:55.521Z,8.52
2022-10-21T10:49:24.456Z,8.45
2022-10-21T10:52:06.975Z,8.90
2022-10-21T10:54:38.355Z,8.65
2022-10-21T10:57:11.713Z,8.15
2022-10-21T10:59:44.523Z,10.45
2022-10-21T11:02:36.332Z,8.80
2022-10-21T11:05:17.752Z,8.13
2022-10-21T11:07:49.614Z,8.82
2022-10-21T11:10:45.828Z,9.00
2022-10-21T11:13:16.653Z,7.88
2022-10-21T11:16:12.288Z,8.18
2022-10-21T11:18:49.925Z,9.40
2022-10-21T11:24:51.123Z,12.02
2022-10-21T11:27:28.690Z,11.48
2022-10-21T11:32:44.085Z,12.90
2022-10-21T11:35:31.880Z,12.73
2022-10-21T11:38:15.620Z,13.38
2022-10-21T11:40:50.361Z,11.35
2022-10-21T11:43:32.071Z,10.25
2022-10-21T11:46:08.589Z,10.30
2022-10-21T11:49:01.008Z,9.73
2022-10-21T11:51:41.209Z,9.38
2022-10-21T11:54:28.032Z,8.00
2022-10-21T11:57:04.699Z,9.00
2022-10-21T11:59:48.243Z,8.53
2022-10-21T12:02:26.315Z,10.15
2022-10-21T12:05:06.843Z,8.57
2022-10-21T12:08:00.228Z,8.60
2022-10-21T12:10:33.487Z,7.85
2022-10-21T12:13:07.104Z,9.20
2022-10-21T12:15:41.358Z,8.98
2022-10-21T12:18:17.064Z,8.25
2022-10-21T12:20:48.958Z,8.32
2022-10-21T12:23:21.297Z,8.23
2022-10-21T12:26:01.704Z,6.93
2022-10-21T12:28:36.604Z,7.00
2022-10-21T12:31:23.705Z,6.50
2022-10-21T12:33:52.654Z,7.50
2022-10-21T12:36:39.908Z,8.18
2022-10-21T12:41:41.673Z,7.07
2022-10-21T12:44:26.772Z,7.15
2022-10-21T12:46:57.478Z,6.57
2022-10-21T12:49:30.534Z,7.40
2022-10-21T12:52:10.207Z,6.35
2022-10-21T12:54:47.797Z,7.28
2022-10-21T12:57:26.922Z,6.45
2022-10-21T13:00:17.666Z,6.70
2022-10-21T13:02:59.844Z,6.05
2022-10-21T13:06:02.004Z,6.35
2022-10-21T13:08:38.609Z,6.38
2022-10-21T13:11:40.582Z,6.27
2022-10-21T13:14:35.283Z,6.10
2022-10-21T13:17:42.548Z,6.07
2022-10-21T13:20:46.379Z,5.60
2022-10-21T13:23:38.724Z,6.38
2022-10-21T13:26:20.715Z,6.70
2022-10-21T13:29:09.416Z,6.13
2022-10-21T13:31:40.142Z,6.38
2022-10-21T13:34:24.881Z,5.82
2022-10-21T13:36:53.801Z,6.03
2022-10-21T13:39:27.364Z,5.88
2022-10-21T13:42:02.454Z,6.03
2022-10-21T13:44:36.340Z,6.05
2022-10-21T13:47:26.558Z,5.80
2022-10-21T13:49:56.585Z,5.88
2022-10-21T13:52:29.366Z,5.78
2022-10-21T13:54:58.573Z,6.43
2022-10-21T13:57:30.595Z,5.97
2022-10-21T14:00:06.780Z,6.57
2022-10-21T14:02:35.224Z,6.10
2022-10-21T14:05:10.560Z,6.25
2022-10-21T14:07:39.594Z,5.40
2022-10-21T14:10:09.091Z,6.60
2022-10-21T14:12:45.100Z,5.38
2022-10-21T14:15:19.207Z,5.82
2022-10-21T14:17:51.983Z,6.55
2022-10-21T14:20:26.869Z,6.10
2022-10-21T14:23:10.475Z,6.32
2022-10-21T14:25:39.147Z,6.78
2022-10-21T14:28:12.091Z,6.30
2022-10-21T14:30:43.228Z,6.30
2022-10-21T14:33:17.496Z,5.80
2022-10-21T14:36:08.959Z,6.22
2022-10-21T14:38:42.734Z,6.28
2022-10-21T14:41:17.574Z,5.95
2022-10-21T14:43:47.553Z,6.53
2022-10-21T14:46:19.630Z,6.47
2022-10-21T14:48:54.153Z,6.25
2022-10-21T14:51:23.722Z,5.88
2022-10-21T14:53:56.598Z,5.95
2022-10-21T14:56:31.904Z,6.50
2022-10-21T14:59:02.098Z,6.55
2022-10-21T15:01:43.053Z,6.07
2022-10-21T15:04:41.630Z,6.75
2022-10-21T15:07:18.062Z,5.75
2022-10-21T15:10:09.688Z,5.97
2022-10-21T15:12:41.706Z,6.13
2022-10-21T15:15:48.309Z,5.97
2022-10-21T15:18:25.997Z,6.18
2022-10-21T15:20:57.344Z,5.93
2022-10-21T15:23:28.688Z,6.28
2022-10-21T15:26:03.733Z,6.20
2022-10-21T15:28:36.575Z,6.10
2022-10-21T15:31:09.684Z,6.68
2022-10-21T15:33:39.226Z,5.60
2022-10-21T15:36:09.615Z,6.00
2022-10-21T15:38:38.603Z,5.50
2022-10-21T15:41:07.298Z,6.25
2022-10-21T15:43:38.494Z,5.90
2022-10-21T15:46:07.154Z,5.95
2022-10-21T15:48:35.584Z,6.03
2022-10-21T15:51:09.943Z,6.00
2022-10-21T15:53:40.989Z,6.43
2022-10-21T15:56:13.789Z,6.15
2022-10-21T15:58:42.983Z,5.85
2022-10-21T16:01:13.641Z,5.75
2022-10-21T16:03:44.072Z,5.95
2022-10-21T16:06:17.219Z,5.70
2022-10-21T16:08:45.674Z,6.05
2022-10-21T16:11:18.964Z,5.82
2022-10-21T16:13:54.159Z,6.35
2022-10-21T16:16:24.759Z,6.15
2022-10-21T16:18:53.731Z,6.15
2022-10-21T16:21:24.531Z,5.63
2022-10-21T16:23:55.864Z,5.75
2022-10-21T16:26:25.846Z,5.90
2022-10-21T16:28:56.666Z,6.70
2022-10-21T16:31:27.091Z,6.25
2022-10-21T16:33:55.849Z,5.60
2022-10-21T16:36:27.696Z,5.80
2022-10-21T16:38:56.152Z,5.53
2022-10-21T16:41:28.649Z,5.75
2022-10-21T16:43:57.559Z,5.95
2022-10-21T16:46:27.841Z,5.97
2022-10-21T16:48:55.970Z,6.35
2022-10-21T16:51:28.780Z,6.65
2022-10-21T16:53:57.265Z,6.95
2022-10-21T16:58:59.340Z,7.15
2022-10-21T17:01:27.652Z,7.40
2022-10-21T17:03:56.233Z,7.47
2022-10-21T17:06:27.439Z,6.88
2022-10-21T17:08:56.868Z,8.48
2022-10-21T17:11:33.215Z,9.07
2022-10-21T17:14:02.409Z,8.68
2022-10-21T17:16:33.389Z,7.57
2022-10-21T17:19:01.816Z,8.10
2022-10-21T17:21:33.672Z,7.93
2022-10-21T17:24:03.446Z,9.00
2022-10-21T17:26:33.957Z,9.05
2022-10-21T17:29:02.485Z,9.48
2022-10-21T17:31:32.029Z,8.93
2022-10-21T17:34:06.418Z,8.02
2022-10-21T17:36:39.355Z,7.05
2022-10-21T17:39:07.748Z,6.88
2022-10-21T17:41:36.023Z,7.88
2022-10-21T17:44:04.306Z,7.60
2022-10-21T17:46:32.566Z,7.07
2022-10-21T17:49:00.830Z,6.47
2022-10-21T17:51:33.603Z,5.78
2022-10-21T17:54:05.302Z,4.80
2022-10-21T17:56:34.105Z,5.30
2022-10-21T17:59:03.806Z,5.18
2022-10-21T18:01:32.102Z,5.00
2022-10-21T18:04:00.428Z,4.50
2022-10-21T18:06:28.657Z,4.32
2022-10-21T18:08:58.186Z,3.70
2022-10-21T18:11:27.740Z,4.25
2022-10-21T18:13:56.254Z,3.97
2022-10-21T18:16:25.964Z,3.60
2022-10-21T18:18:57.255Z,4.10
2022-10-21T18:21:28.354Z,3.90
2022-10-21T18:23:56.760Z,4.15
2022-10-21T18:26:28.758Z,4.13
2022-10-21T18:29:01.271Z,3.70
2022-10-21T18:31:31.743Z,3.42
2022-10-21T18:34:00.683Z,3.10
2022-10-21T18:36:29.210Z,3.60
2022-10-21T18:38:58.982Z,3.08
2022-10-21T18:41:31.170Z,3.33
2022-10-21T18:44:04.801Z,3.10
2022-10-21T18:46:36.491Z,3.50
2022-10-21T18:49:06.427Z,2.92
2022-10-21T18:51:34.663Z,3.60
2022-10-21T18:54:02.774Z,3.67
2022-10-21T18:56:32.360Z,3.60
2022-10-21T18:59:00.529Z,3.78
2022-10-21T19:01:28.795Z,3.90
2022-10-21T19:03:56.939Z,3.55
2022-10-21T19:06:36.018Z,4.72
2022-10-21T19:09:06.760Z,4.40
2022-10-21T19:11:36.586Z,3.90
2022-10-21T19:14:09.841Z,3.60
2022-10-21T19:16:41.163Z,4.10
2022-10-21T19:19:09.717Z,3.83
2022-10-21T19:21:38.248Z,4.35
2022-10-21T19:24:06.999Z,3.78
2022-10-21T19:26:38.896Z,3.63
2022-10-21T19:29:09.147Z,4.30
2022-10-21T19:31:38.509Z,3.55
2022-10-21T19:34:07.396Z,4.03
2022-10-21T19:36:35.861Z,3.55
2022-10-21T19:39:04.186Z,4.28
2022-10-21T19:41:32.355Z,4.10
2022-10-21T19:44:02.087Z,3.75
2022-10-21T19:46:32.269Z,3.85
2022-10-21T19:49:02.373Z,4.00
2022-10-21T19:51:33.705Z,4.00
2022-10-21T19:54:04.854Z,3.80
2022-10-21T19:56:35.840Z,3.97
2022-10-21T19:59:05.592Z,4.35
2022-10-21T20:01:35.377Z,4.28
2022-10-21T20:04:04.896Z,4.82
2022-10-21T20:06:34.572Z,5.20
2022-10-21T20:09:05.496Z,4.88
2022-10-21T20:11:34.039Z,4.75
2022-10-21T20:14:02.570Z,4.93
2022-10-21T20:16:36.649Z,5.18
2022-10-21T20:19:07.488Z,5.20
2022-10-21T20:21:36.840Z,5.05
2022-10-21T20:24:05.718Z,5.43
2022-10-21T20:26:34.076Z,5.75
2022-10-21T20:29:02.929Z,5.28
2022-10-21T20:31:31.738Z,5.45
2022-10-21T20:34:02.645Z,6.55
2022-10-21T20:36:33.355Z,6.60
2022-10-21T20:39:03.329Z,5.80
2022-10-21T20:41:34.551Z,6.30
2022-10-21T20:44:03.288Z,6.20
2022-10-21T20:46:34.866Z,5.72
2022-10-21T20:49:06.613Z,6.25
2022-10-21T20:51:36.345Z,6.15
2022-10-21T20:54:07.290Z,5.93
2022-10-21T20:56:38.183Z,6.38
2022-10-21T20:59:08.130Z,5.63
2022-10-21T21:01:41.559Z,6.20
2022-10-21T21:04:13.709Z,6.25
2022-10-21T21:06:44.140Z,6.38
2022-10-21T21:12:03.573Z,5.68
2022-10-21T21:14:32.306Z,5.80
2022-10-21T21:17:02.606Z,5.63
2022-10-21T21:19:34.531Z,5.78
2022-10-21T21:22:03.783Z,5.78
2022-10-21T21:24:32.537Z,5.28
2022-10-21T21:27:00.649Z,6.43
2022-10-21T21:29:28.719Z,5.22
2022-10-21T21:31:56.873Z,5.60
2022-10-21T21:34:24.941Z,5.53
2022-10-21T21:36:54.312Z,5.65
2022-10-21T21:39:22.413Z,5.07
2022-10-21T21:41:50.487Z,6.18
2022-10-21T21:44:18.626Z,5.53
2022-10-21T21:46:46.784Z,5.07
2022-10-21T21:49:14.870Z,5.35
2022-10-21T21:51:42.930Z,5.82
2022-10-21T21:54:12.971Z,5.72
2022-10-21T21:56:41.122Z,5.57
2022-10-21T21:59:09.167Z,5.47
2022-10-21T22:01:37.271Z,5.15
2022-10-21T22:04:07.962Z,5.00
2022-10-21T22:06:38.313Z,4.75
2022-10-21T22:09:09.884Z,4.95
2022-10-21T22:11:39.703Z,5.15
2022-10-21T22:14:10.131Z,4.80
2022-10-21T22:16:38.508Z,5.05
2022-10-21T22:19:06.886Z,4.68
2022-10-21T22:21:35.040Z,5.07
2022-10-21T22:24:03.109Z,5.60
2022-10-21T22:26:31.235Z,5.82
2022-10-21T22:29:00.695Z,5.45
2022-10-21T22:31:30.723Z,5.82
2022-10-21T22:34:01.207Z,5.38
2022-10-21T22:36:29.641Z,5.35
2022-10-21T22:38:57.903Z,5.43
2022-10-21T22:41:26.067Z,5.50
2022-10-21T22:43:56.773Z,5.13
2022-10-21T22:46:33.989Z,5.25
2022-10-21T22:49:04.257Z,5.22
2022-10-21T22:51:32.793Z,4.72
2022-10-21T22:54:01.558Z,5.05
2022-10-21T22:56:30.103Z,4.97
2022-10-21T22:58:58.597Z,4.65
2022-10-21T23:01:30.386Z,4.90
2022-10-21T23:04:02.630Z,5.15
2022-10-21T23:06:31.339Z,4.72
2022-10-21T23:09:00.534Z,5.07
2022-10-21T23:11:35.657Z,5.40
2022-10-21T23:14:12.460Z,4.93
2022-10-21T23:16:47.486Z,4.90
2022-10-21T23:19:23.522Z,4.57
2022-10-21T23:21:55.085Z,4.55
2022-10-21T23:24:27.781Z,4.80
2022-10-21T23:27:01.438Z,4.80
2022-10-21T23:29:34.618Z,4.63
2022-10-21T23:32:08.210Z,5.10
2022-10-21T23:34:37.701Z,5.10
2022-10-21T23:37:05.874Z,4.30
2022-10-21T23:39:33.946Z,4.95
2022-10-21T23:42:02.102Z,4.20
2022-10-21T23:44:30.193Z,4.50
2022-10-21T23:46:58.353Z,3.47
2022-10-21T23:49:28.530Z,4.15
2022-10-21T23:51:56.663Z,3.70
2022-10-21T23:54:24.828Z,4.15
2022-10-21T23:56:52.891Z,3.88
2022-10-21T23:59:22.010Z,3.58
